Time;durP1;ratioP1;P1;durP2;ratioP2;P2;SDS_P1;SDS_P2;PMS_P1;PMS_P2;Temp;Humidity;BMP_temperature;BMP_pressure;BME280_temperature;BME280_humidity;BME280_pressure;Samples;Min_cycle;Max_cycle;Signal;HPM_P1;HPM_P2
2021/05/17 00:00:09;;;;;;;12.03;6.12;;;;;;;22.96;61.14;98777.13;1792392;78;21028;-73
2021/05/17 00:02:37;;;;;;;11.93;6.92;;;;;;;22.96;61.09;98780.39;1791531;78;20972;-73
2021/05/17 00:05:06;;;;;;;7.30;6.15;;;;;;;22.92;61.19;98769.84;1811320;78;21983;-74
2021/05/17 00:07:33;;;;;;;8.43;6.20;;;;;;;22.94;61.12;98773.89;1798674;78;21066;-73
2021/05/17 00:10:02;;;;;;;7.78;6.08;;;;;;;22.92;61.07;98770.64;1796599;78;21573;-73
2021/05/17 00:12:29;;;;;;;9.43;6.15;;;;;;;22.92;61.17;98765.78;1790799;78;21052;-72
2021/05/17 00:14:56;;;;;;;7.72;6.00;;;;;;;22.91;61.13;98762.81;1800445;78;21114;-73
2021/05/17 00:17:23;;;;;;;8.50;6.03;;;;;;;22.90;61.20;98759.27;1811676;78;21091;-74
2021/05/17 00:19:50;;;;;;;7.85;5.95;;;;;;;22.89;61.29;98757.66;1777131;78;21067;-74
2021/05/17 00:22:18;;;;;;;8.73;5.92;;;;;;;22.86;61.40;98751.43;1791141;78;21089;-73
2021/05/17 00:24:47;;;;;;;9.80;6.10;;;;;;;22.85;61.35;98750.34;1797747;78;21107;-71
2021/05/17 00:27:14;;;;;;;8.60;6.47;;;;;;;22.84;61.10;98749.54;1797219;78;21058;-72
2021/05/17 00:29:43;;;;;;;9.38;5.90;;;;;;;22.83;61.06;98744.39;1804247;78;21039;-73
2021/05/17 00:32:11;;;;;;;6.72;5.95;;;;;;;22.81;61.07;98751.42;1793036;78;21120;-73
2021/05/17 00:34:40;;;;;;;6.62;5.60;;;;;;;22.79;61.07;98750.89;1805364;78;21062;-74
2021/05/17 00:37:08;;;;;;;7.10;5.37;;;;;;;22.79;61.17;98752.24;1792256;78;21146;-74
2021/05/17 00:39:35;;;;;;;9.63;6.22;;;;;;;22.78;61.26;98746.58;1810792;78;21531;-74
2021/05/17 00:42:05;;;;;;;7.45;5.08;;;;;;;22.77;61.17;98735.46;1816608;78;21091;-73
2021/05/17 00:44:31;;;;;;;9.80;5.15;;;;;;;22.75;61.12;98736.28;1795701;78;21099;-74
2021/05/17 00:46:58;;;;;;;7.53;5.10;;;;;;;22.74;60.91;98733.31;1790734;78;21080;-73
2021/05/17 00:49:24;;;;;;;6.75;5.37;;;;;;;22.73;60.85;98729.77;1789149;78;21035;-73
2021/05/17 00:51:53;;;;;;;5.72;5.10;;;;;;;22.71;60.88;98723.83;1802001;78;21025;-73
2021/05/17 00:54:21;;;;;;;6.87;5.50;;;;;;;22.70;60.85;98728.98;1815707;78;21072;-75
2021/05/17 00:56:49;;;;;;;7.83;5.28;;;;;;;22.70;60.95;98740.36;1786643;78;21074;-74
2021/05/17 00:59:17;;;;;;;10.50;5.20;;;;;;;22.69;61.03;98733.31;1825061;78;21055;-74
2021/05/17 01:01:45;;;;;;;7.10;5.12;;;;;;;22.68;60.93;98732.51;1819103;78;21098;-75
2021/05/17 01:04:14;;;;;;;7.05;5.15;;;;;;;22.68;60.90;98729.00;1808597;78;21031;-74
2021/05/17 01:06:46;;;;;;;8.55;5.37;;;;;;;22.67;60.83;98736.84;1813911;78;21086;-74
2021/05/17 01:09:13;;;;;;;5.78;5.28;;;;;;;22.65;60.87;98732.23;1823466;78;21052;-73
2021/05/17 01:11:43;;;;;;;7.50;5.10;;;;;;;22.64;60.93;98726.02;1807936;78;21031;-74
2021/05/17 01:14:15;;;;;;;6.53;5.20;;;;;;;22.64;60.86;98717.06;1816974;78;21059;-73
2021/05/17 01:16:45;;;;;;;7.97;4.70;;;;;;;22.62;60.76;98709.76;1814969;78;21040;-74
2021/05/17 01:19:16;;;;;;;5.73;4.93;;;;;;;22.60;60.57;98714.12;1814527;78;21096;-75
2021/05/17 01:21:45;;;;;;;5.50;5.00;;;;;;;22.58;60.60;98716.28;1773546;78;21590;-73
2021/05/17 01:24:14;;;;;;;4.70;4.22;;;;;;;22.56;60.71;98717.91;1781765;78;21051;-74
2021/05/17 01:26:41;;;;;;;6.40;5.47;;;;;;;22.57;60.49;98729.53;1789497;78;21052;-75
2021/05/17 01:29:09;;;;;;;8.23;6.20;;;;;;;22.56;60.41;98719.78;1792738;78;21535;-75
2021/05/17 01:31:37;;;;;;;6.62;5.47;;;;;;;22.55;60.55;98725.73;1812913;78;21100;-73
2021/05/17 01:34:07;;;;;;;5.15;4.65;;;;;;;22.54;60.37;98725.48;1794693;78;21131;-74
2021/05/17 01:36:34;;;;;;;7.22;5.30;;;;;;;22.53;60.59;98721.14;1781898;78;21075;-74
2021/05/17 01:39:01;;;;;;;5.95;5.05;;;;;;;22.53;60.83;98717.08;1798875;78;21653;-74
2021/05/17 01:41:28;;;;;;;6.60;4.87;;;;;;;22.53;60.72;98720.34;1794173;78;21084;-74
2021/05/17 01:43:57;;;;;;;5.67;4.80;;;;;;;22.54;60.69;98722.78;1811409;78;21137;-72
2021/05/17 01:46:28;;;;;;;6.67;5.28;;;;;;;22.53;60.75;98719.79;1812924;78;21203;-74
2021/05/17 01:48:59;;;;;;;6.62;4.90;;;;;;;22.53;60.46;98710.31;1792472;78;21059;-73
2021/05/17 01:51:26;;;;;;;4.83;4.42;;;;;;;22.52;60.52;98707.36;1781139;80;21062;-72
2021/05/17 01:53:55;;;;;;;6.60;4.53;;;;;;;22.51;60.47;98707.07;1782346;78;21112;-73
2021/05/17 01:56:22;;;;;;;6.97;4.53;;;;;;;22.51;60.58;98717.09;1786546;78;21072;-72
2021/05/17 01:58:51;;;;;;;5.03;4.62;;;;;;;22.51;60.66;98723.31;1788095;78;21107;-72
2021/05/17 02:01:18;;;;;;;5.72;4.70;;;;;;;22.51;60.98;98736.03;1791837;78;21063;-74
2021/05/17 02:03:47;;;;;;;5.12;4.53;;;;;;;22.52;61.07;98732.23;1789960;78;21106;-73
2021/05/17 02:06:15;;;;;;;5.78;4.33;;;;;;;22.51;61.18;98743.61;1783180;78;21550;-73
2021/05/17 02:08:48;;;;;;;4.35;3.95;;;;;;;22.51;61.25;98749.02;1786388;78;21059;-73
2021/05/17 02:11:19;;;;;;;5.15;4.42;;;;;;;22.52;61.23;98757.94;1788661;78;21059;-73
2021/05/17 02:13:48;;;;;;;6.83;4.75;;;;;;;22.52;61.30;98756.07;1786774;78;21567;-73
2021/05/17 02:16:16;;;;;;;4.55;4.15;;;;;;;22.52;61.37;98753.36;1777234;78;21059;-73
2021/05/17 02:18:47;;;;;;;5.42;4.83;;;;;;;22.52;61.22;98736.29;1786771;78;21078;-73
2021/05/17 02:21:15;;;;;;;6.30;4.67;;;;;;;22.50;60.25;98721.70;1786169;78;21072;-73
2021/05/17 02:23:43;;;;;;;5.08;4.58;;;;;;;22.50;59.32;98707.34;1791803;78;21555;-75
2021/05/17 02:26:11;;;;;;;7.67;5.05;;;;;;;22.49;58.59;98701.12;1793408;80;21071;-75
2021/05/17 02:28:40;;;;;;;5.78;4.33;;;;;;;22.49;58.07;98694.91;1780433;78;21130;-74
2021/05/17 02:31:08;;;;;;;8.13;4.92;;;;;;;22.47;57.84;98684.34;1780853;78;21082;-74
2021/05/17 02:33:35;;;;;;;6.58;4.62;;;;;;;22.45;57.79;98679.75;1793499;78;21744;-75
2021/05/17 02:36:03;;;;;;;8.83;5.97;;;;;;;22.43;57.89;98677.86;1793568;80;21075;-74
2021/05/17 02:38:33;;;;;;;9.60;5.33;;;;;;;22.41;57.97;98680.03;1792962;78;21035;-74
2021/05/17 02:40:59;;;;;;;7.45;4.55;;;;;;;22.38;58.01;98673.25;1791855;78;21067;-75
2021/05/17 02:43:28;;;;;;;4.97;4.42;;;;;;;22.36;58.19;98672.70;1790087;78;21027;-74
2021/05/17 02:46:02;;;;;;;6.42;4.90;;;;;;;22.34;58.37;98674.07;1773255;78;21091;-76
2021/05/17 02:48:33;;;;;;;6.22;4.85;;;;;;;22.32;58.66;98674.33;1789296;78;21052;-76
2021/05/17 02:51:00;;;;;;;5.50;4.55;;;;;;;22.31;58.97;98678.66;1788821;78;21080;-75
2021/05/17 02:53:38;;;;;;;7.12;5.05;;;;;;;22.28;59.43;98690.84;1803304;78;21076;-76
2021/05/17 02:56:18;;;;;;;5.20;4.45;;;;;;;22.28;59.87;98703.02;1798924;78;21052;-74
2021/05/17 02:58:49;;;;;;;5.08;4.08;;;;;;;22.27;60.31;98709.52;1798420;78;21202;-74
2021/05/17 03:01:23;;;;;;;6.03;4.28;;;;;;;22.25;60.92;98689.22;1781740;80;21098;-75
2021/05/17 03:03:50;;;;;;;4.92;4.00;;;;;;;22.24;61.47;98682.17;1788028;78;21055;-74
2021/05/17 03:06:34;;;;;;;5.10;4.12;;;;;;;22.22;61.23;98668.10;1790860;78;21092;-75
2021/05/17 03:09:09;;;;;;;4.90;4.28;;;;;;;22.21;61.28;98675.93;1790129;78;21104;-76
2021/05/17 03:11:46;;;;;;;5.20;4.17;;;;;;;22.20;61.46;98683.24;1788975;78;21675;-74
2021/05/17 03:14:16;;;;;;;5.87;5.22;;;;;;;22.18;61.70;98688.11;1794370;78;21103;-76
2021/05/17 03:16:47;;;;;;;9.58;4.70;;;;;;;22.17;61.99;98695.94;1803299;78;21023;-75
2021/05/17 03:19:14;;;;;;;8.83;4.97;;;;;;;22.15;62.40;98696.20;1812109;78;21099;-74
2021/05/17 03:21:43;;;;;;;5.12;4.25;;;;;;;22.14;62.68;98693.80;1790796;78;21550;-75
2021/05/17 03:24:11;;;;;;;5.72;4.58;;;;;;;22.13;62.94;98681.34;1795579;78;21108;-75
2021/05/17 03:26:39;;;;;;;6.25;4.70;;;;;;;22.11;63.04;98677.55;1788385;78;21154;-74
2021/05/17 03:29:05;;;;;;;5.75;4.60;;;;;;;22.09;63.16;98669.44;1787765;78;21035;-75
2021/05/17 03:31:31;;;;;;;6.72;4.75;;;;;;;22.08;63.33;98671.34;1798590;78;21142;-74
2021/05/17 03:33:59;;;;;;;5.35;4.35;;;;;;;22.07;63.59;98668.35;1785983;78;21137;-75
2021/05/17 03:36:25;;;;;;;6.65;4.90;;;;;;;22.07;63.80;98660.23;1792927;78;21059;-75
2021/05/17 03:38:52;;;;;;;5.83;4.37;;;;;;;22.05;64.05;98652.94;1797507;78;21112;-75
2021/05/17 03:41:19;;;;;;;6.22;5.25;;;;;;;22.04;64.32;98644.57;1799486;78;21861;-75
2021/05/17 03:43:45;;;;;;;7.90;6.03;;;;;;;22.04;64.55;98632.40;1812103;78;21063;-75
2021/05/17 03:46:12;;;;;;;9.35;5.67;;;;;;;22.04;64.70;98624.29;1788738;78;21544;-74
2021/05/17 03:48:42;;;;;;;7.67;5.35;;;;;;;22.03;64.75;98614.54;1797061;78;21080;-75
2021/05/17 03:51:11;;;;;;;8.15;5.10;;;;;;;22.03;64.86;98594.80;1802965;78;21070;-75
2021/05/17 03:53:38;;;;;;;11.05;5.60;;;;;;;22.04;64.84;98576.13;1794120;78;21095;-75
2021/05/17 03:56:05;;;;;;;9.03;5.35;;;;;;;22.03;64.64;98563.16;1802659;78;21055;-76
2021/05/17 03:58:32;;;;;;;6.47;5.55;;;;;;;22.03;64.61;98556.41;1808902;78;21012;-75
2021/05/17 04:01:00;;;;;;;6.97;5.53;;;;;;;22.05;64.57;98559.64;1799076;78;21071;-72
2021/05/17 04:03:26;;;;;;;8.18;6.65;;;;;;;22.05;64.59;98573.71;1822115;78;21056;-74
2021/05/17 04:13:56;;;;;;;8.00;6.25;;;;;;;22.03;64.45;98580.73;1820391;78;21077;-75
2021/05/17 04:16:23;;;;;;;7.47;6.03;;;;;;;22.02;64.39;98572.38;1804178;78;22171;-73
2021/05/17 04:18:51;;;;;;;5.72;5.20;;;;;;;22.03;64.35;98566.41;1818701;78;21075;-73
2021/05/17 04:21:18;;;;;;;7.37;5.40;;;;;;;22.03;64.35;98571.27;1811286;78;21119;-72
2021/05/17 04:23:44;;;;;;;7.08;5.30;;;;;;;22.05;64.25;98566.95;1795151;78;21512;-72
2021/05/17 04:26:11;;;;;;;6.72;5.55;;;;;;;22.04;64.10;98555.33;1791691;78;21087;-73
2021/05/17 04:28:38;;;;;;;5.90;5.17;;;;;;;22.06;63.97;98553.16;1798367;78;21119;-73
2021/05/17 04:31:04;;;;;;;6.05;5.37;;;;;;;22.06;64.01;98549.11;1801019;78;21074;-73
2021/05/17 04:33:30;;;;;;;6.00;5.45;;;;;;;22.08;64.03;98537.48;1796136;78;21183;-72
2021/05/17 04:35:57;;;;;;;5.78;5.17;;;;;;;22.08;64.03;98537.48;1806520;78;21110;-73
2021/05/17 04:38:23;;;;;;;5.85;5.25;;;;;;;22.10;64.04;98548.83;1807747;78;21432;-73
2021/05/17 04:40:50;;;;;;;5.92;5.12;;;;;;;22.12;64.04;98554.77;1800145;78;21037;-73
2021/05/17 04:43:16;;;;;;;6.55;4.97;;;;;;;22.13;64.06;98556.38;1805243;78;21019;-74
2021/05/17 04:45:42;;;;;;;6.75;5.58;;;;;;;22.16;64.11;98565.86;1821119;78;21094;-73
2021/05/17 04:48:09;;;;;;;6.78;5.33;;;;;;;22.17;64.18;98568.81;1804155;78;21058;-73
2021/05/17 04:50:36;;;;;;;9.03;6.62;;;;;;;22.18;64.24;98573.96;1802478;78;21876;-74
2021/05/17 04:53:02;;;;;;;10.32;6.15;;;;;;;22.19;64.60;98573.41;1817385;78;21082;-75
2021/05/17 04:55:29;;;;;;;9.48;6.75;;;;;;;22.23;64.06;98579.09;1818404;78;21067;-75
2021/05/17 04:57:55;;;;;;;8.68;6.55;;;;;;;22.30;64.01;98576.95;1801951;78;21574;-74
2021/05/17 05:00:22;;;;;;;8.85;6.10;;;;;;;22.37;64.23;98578.30;1799297;78;21110;-74
2021/05/17 05:02:48;;;;;;;8.45;6.20;;;;;;;22.48;64.45;98566.09;1806866;78;21644;-75
2021/05/17 05:05:15;;;;;;;9.38;5.97;;;;;;;22.55;64.63;98563.91;1818041;78;21102;-75
2021/05/17 05:07:42;;;;;;;10.60;6.78;;;;;;;22.64;64.61;98558.20;1816126;78;21048;-74
2021/05/17 05:10:10;;;;;;;8.65;6.85;;;;;;;22.72;64.43;98563.59;1793799;78;21074;-76
2021/05/17 05:12:38;;;;;;;11.60;7.30;;;;;;;22.80;64.23;98558.95;1806442;78;21074;-76
2021/05/17 05:15:06;;;;;;;7.15;5.97;;;;;;;22.87;64.14;98564.88;1801941;78;21074;-77
2021/05/17 05:17:33;;;;;;;6.97;6.25;;;;;;;22.94;64.01;98562.66;1793154;78;21768;-76
2021/05/17 05:20:00;;;;;;;7.92;5.75;;;;;;;23.01;63.79;98555.60;1798178;78;21045;-76
2021/05/17 05:22:26;;;;;;;11.93;6.87;;;;;;;23.07;63.72;98549.09;1790503;78;21506;-75
2021/05/17 05:24:55;;;;;;;8.23;6.12;;;;;;;23.13;63.62;98552.59;1810649;78;21631;-76
2021/05/17 05:30:18;;;;;;;8.53;6.15;;;;;;;23.24;63.37;98543.31;1801629;78;21086;-77
2021/05/17 05:32:47;;;;;;;7.20;5.50;;;;;;;23.28;63.19;98534.09;1799422;78;21767;-75
2021/05/17 05:35:08;;;;;;;9.03;5.75;;;;;;;23.33;63.13;98525.38;1815613;78;21154;-76
2021/05/17 05:37:35;;;;;;;6.95;5.40;;;;;;;23.38;62.96;98523.72;1812707;78;21056;-75
2021/05/17 05:40:05;;;;;;;8.20;5.67;;;;;;;23.43;62.84;98526.38;1752092;80;21153;-76
2021/05/17 05:42:29;;;;;;;9.80;6.12;;;;;;;23.48;62.75;98514.16;1775784;80;21095;-78
2021/05/17 05:44:56;;;;;;;6.40;5.40;;;;;;;23.52;62.68;98507.87;1760396;80;21020;-77
2021/05/17 05:47:22;;;;;;;7.72;5.58;;;;;;;23.56;62.52;98501.34;1754387;80;21535;-77
2021/05/17 05:49:49;;;;;;;9.75;5.78;;;;;;;23.60;62.38;98488.03;1773225;80;21055;-75
2021/05/17 05:52:16;;;;;;;7.25;5.37;;;;;;;23.64;62.23;98479.59;1753708;81;21104;-75
2021/05/17 05:54:49;;;;;;;7.37;5.22;;;;;;;23.68;62.07;98471.98;1750276;80;21658;-76
2021/05/17 05:57:14;;;;;;;7.95;5.17;;;;;;;23.72;61.94;98473.03;1752672;81;21606;-75
2021/05/17 05:59:41;;;;;;;10.08;5.53;;;;;;;23.76;61.83;98474.63;1739834;81;21099;-75
2021/05/17 06:02:07;;;;;;;8.50;5.12;;;;;;;23.78;61.68;98462.97;1749211;81;21622;-76
2021/05/17 06:04:34;;;;;;;7.08;5.37;;;;;;;23.82;61.59;98455.08;1734027;81;21269;-75
2021/05/17 06:07:00;;;;;;;7.17;4.92;;;;;;;23.85;61.46;98453.94;1749236;81;21111;-76
2021/05/17 06:09:27;;;;;;;6.47;4.87;;;;;;;23.86;61.30;98450.70;1763445;80;21987;-75
2021/05/17 06:11:55;;;;;;;5.80;4.97;;;;;;;23.89;61.24;98450.10;1784418;80;21706;-76
2021/05/17 06:14:24;;;;;;;9.78;4.62;;;;;;;23.91;61.18;98438.42;1771920;80;21048;-76
2021/05/17 06:16:53;;;;;;;8.73;4.95;;;;;;;23.93;61.09;98437.58;1755012;80;21135;-76
2021/05/17 06:19:22;;;;;;;5.55;4.97;;;;;;;23.95;61.04;98450.30;1760084;80;21080;-76
2021/05/17 06:21:49;;;;;;;4.95;4.22;;;;;;;23.98;61.16;98436.73;1764144;80;21046;-75
2021/05/17 06:24:19;;;;;;;5.15;4.40;;;;;;;23.99;61.13;98433.74;1767665;80;21136;-76
2021/05/17 06:26:46;;;;;;;8.33;4.85;;;;;;;24.02;61.08;98430.99;1757309;80;21087;-76
2021/05/17 06:29:13;;;;;;;6.08;4.83;;;;;;;24.04;61.00;98430.95;1756695;80;21067;-76
2021/05/17 06:31:45;;;;;;;5.75;4.42;;;;;;;24.07;60.86;98422.25;1746720;80;21069;-74
2021/05/17 06:34:13;;;;;;;6.72;5.03;;;;;;;24.09;60.75;98404.34;1749931;80;21090;-78
2021/05/17 06:36:39;;;;;;;5.55;4.47;;;;;;;24.11;60.61;98393.45;1741203;80;21131;-70
2021/05/17 06:39:08;;;;;;;5.33;4.33;;;;;;;24.14;60.42;98398.30;1757313;80;21067;-76
2021/05/17 06:41:35;;;;;;;5.78;4.12;;;;;;;24.18;60.41;98397.15;1737664;81;21102;-78
2021/05/17 06:44:02;;;;;;;8.03;4.75;;;;;;;24.21;60.37;98403.92;1757791;80;21107;-76
2021/05/17 06:46:29;;;;;;;6.05;4.00;;;;;;;24.24;60.66;98404.68;1759253;80;21067;-77
2021/05/17 06:48:56;;;;;;;6.72;4.17;;;;;;;24.26;60.77;98407.37;1764965;80;21090;-76
2021/05/17 06:51:23;;;;;;;6.65;4.53;;;;;;;24.30;60.63;98418.47;1758526;80;21528;-77
2021/05/17 06:53:55;;;;;;;7.30;4.37;;;;;;;24.34;60.38;98429.00;1748590;81;21101;-74
2021/05/17 06:56:30;;;;;;;4.40;3.87;;;;;;;24.38;60.14;98446.84;1751547;80;21163;-78
2021/05/17 06:58:56;;;;;;;7.00;4.17;;;;;;;24.40;59.98;98450.90;1754547;80;21588;-74
2021/05/17 07:01:24;;;;;;;4.90;4.08;;;;;;;24.43;59.74;98454.37;1752393;80;21075;-76
2021/05/17 07:03:50;;;;;;;5.08;4.20;;;;;;;24.45;59.55;98452.73;1767373;80;21096;-77
2021/05/17 07:06:22;;;;;;;4.47;4.03;;;;;;;24.48;59.33;98457.03;1744937;81;21239;-78
2021/05/17 07:11:50;;;;;;;6.72;3.55;;;;;;;24.53;58.94;98476.53;1746727;80;22164;-76
2021/05/17 07:14:14;;;;;;;4.87;4.40;;;;;;;24.53;58.78;98462.44;1748842;81;21096;-77
2021/05/17 07:16:41;;;;;;;5.65;4.12;;;;;;;24.56;58.58;98457.52;1747129;81;21143;-77
2021/05/17 07:19:08;;;;;;;6.50;4.10;;;;;;;24.58;58.39;98457.48;1756898;81;22876;-76
2021/05/17 07:24:21;;;;;;;6.62;3.90;;;;;;;24.64;58.19;98444.64;1747778;81;21539;-77
2021/05/17 07:26:49;;;;;;;4.22;3.72;;;;;;;24.66;58.10;98443.80;1775173;80;21085;-78
2021/05/17 07:29:16;;;;;;;6.33;3.90;;;;;;;24.66;58.04;98439.73;1754676;81;21540;-80
2021/05/17 07:31:43;;;;;;;4.92;3.58;;;;;;;24.69;57.96;98441.88;1753846;81;21488;-77
2021/05/17 07:34:10;;;;;;;4.90;3.62;;;;;;;24.71;57.92;98439.67;1753067;81;21114;-77
2021/05/17 07:36:38;;;;;;;5.28;3.90;;;;;;;24.73;57.85;98437.47;1740685;81;21626;-78
2021/05/17 07:39:06;;;;;;;4.53;4.05;;;;;;;24.73;57.85;98431.48;1756137;81;21094;-77
2021/05/17 07:41:32;;;;;;;4.75;3.85;;;;;;;24.77;57.73;98445.84;1743940;81;21594;-77
2021/05/17 07:43:59;;;;;;;4.90;3.92;;;;;;;24.79;57.63;98428.14;1757672;81;21199;-78
2021/05/17 07:46:26;;;;;;;3.85;3.55;;;;;;;24.82;57.57;98430.28;1754317;81;21146;-75
2021/05/17 07:51:35;;;;;;;4.75;3.22;;;;;;;24.88;57.43;98437.25;1754125;81;21055;-74
2021/05/17 07:54:03;;;;;;;4.22;3.55;;;;;;;24.92;57.37;98440.19;1758226;80;21590;-76
2021/05/17 07:56:30;;;;;;;4.75;3.72;;;;;;;24.95;57.26;98430.08;1750350;81;21130;-74
2021/05/17 07:58:57;;;;;;;3.58;3.27;;;;;;;24.99;57.19;98435.73;1756565;80;21069;-76
2021/05/17 08:01:24;;;;;;;4.28;3.58;;;;;;;25.02;57.13;98455.53;1741737;81;21072;-77
2021/05/17 08:03:50;;;;;;;4.05;3.70;;;;;;;25.05;57.05;98471.22;1754406;80;21076;-75
2021/05/17 08:06:17;;;;;;;3.83;3.35;;;;;;;25.08;57.02;98477.44;1739348;81;21072;-75
2021/05/17 08:08:44;;;;;;;4.50;3.67;;;;;;;25.11;56.98;98471.40;1737485;80;22142;-75
2021/05/17 08:11:11;;;;;;;3.87;3.37;;;;;;;25.14;56.88;98464.03;1745602;81;21122;-76
2021/05/17 08:13:39;;;;;;;5.83;3.52;;;;;;;25.18;56.78;98466.41;1756996;81;21610;-75
2021/05/17 08:16:06;;;;;;;3.75;3.45;;;;;;;25.21;56.73;98463.11;1756163;80;21880;-79
2021/05/17 08:18:34;;;;;;;4.85;3.37;;;;;;;25.24;56.62;98467.97;1743538;81;21098;-79
2021/05/17 08:21:01;;;;;;;4.08;3.67;;;;;;;25.28;56.56;98474.98;1749249;81;22235;-79
2021/05/17 08:23:28;;;;;;;4.55;3.52;;;;;;;25.31;56.45;98479.28;1751149;81;21400;-76
2021/05/17 08:25:56;;;;;;;4.40;4.00;;;;;;;25.37;56.36;98476.49;1776862;80;21084;-77
2021/05/17 08:28:22;;;;;;;3.42;3.12;;;;;;;25.41;56.25;98477.52;1756891;81;21060;-76
2021/05/17 08:30:55;;;;;;;3.95;3.47;;;;;;;25.46;56.16;98484.23;1745790;81;22114;-78
2021/05/17 08:33:17;;;;;;;4.22;3.77;;;;;;;25.49;56.09;98477.63;1754268;80;21279;-74
2021/05/17 08:35:43;;;;;;;4.65;3.70;;;;;;;25.53;56.03;98481.92;1757993;81;21071;-74
2021/05/17 08:38:10;;;;;;;4.33;3.52;;;;;;;25.58;55.96;98487.84;1756364;81;21086;-75
2021/05/17 08:40:38;;;;;;;3.52;3.15;;;;;;;25.61;55.86;98478.55;1773202;80;21063;-77
2021/05/17 08:43:04;;;;;;;3.65;3.12;;;;;;;25.64;55.84;98484.73;1751527;80;21039;-76
2021/05/17 08:45:31;;;;;;;4.17;3.42;;;;;;;25.69;55.82;98491.98;1761758;81;21482;-75
2021/05/17 08:47:58;;;;;;;3.65;3.35;;;;;;;25.72;55.76;98501.48;1758974;81;21083;-78
2021/05/17 08:50:24;;;;;;;3.60;3.30;;;;;;;25.75;55.63;98499.50;1752630;81;21080;-76
2021/05/17 08:52:51;;;;;;;3.95;3.55;;;;;;;25.79;55.65;98487.75;1752080;81;21601;-76
2021/05/17 08:55:18;;;;;;;3.30;3.00;;;;;;;25.82;55.63;98478.17;1748933;81;21092;-75
2021/05/17 08:57:46;;;;;;;4.08;3.77;;;;;;;25.85;55.64;98481.10;1750533;81;21848;-73
2021/05/17 09:00:17;;;;;;;3.80;3.40;;;;;;;25.89;55.69;98497.08;1760288;81;21063;-72
2021/05/17 09:02:44;;;;;;;3.45;3.15;;;;;;;25.93;55.69;98508.77;1763481;81;21711;-75
2021/05/17 09:05:32;;;;;;;3.55;3.00;;;;;;;25.96;55.64;98503.53;1746236;81;21399;-76
2021/05/17 09:08:01;;;;;;;3.37;3.08;;;;;;;26.01;55.63;98498.55;1755601;81;21051;-74
2021/05/17 09:10:39;;;;;;;4.33;3.00;;;;;;;26.04;55.67;98493.31;1766478;80;21138;-74
2021/05/17 09:13:08;;;;;;;4.30;3.50;;;;;;;26.07;55.54;98492.69;1741727;81;21159;-74
2021/05/17 09:15:49;;;;;;;3.42;3.12;;;;;;;26.11;55.63;98501.63;1757648;81;21028;-75
2021/05/17 09:18:22;;;;;;;3.58;3.27;;;;;;;26.13;55.52;98506.22;1775869;80;21059;-73
2021/05/17 09:20:51;;;;;;;3.42;3.08;;;;;;;26.14;55.41;98520.89;1765822;80;21103;-72
2021/05/17 09:26:17;;;;;;;3.65;3.02;;;;;;;26.17;54.98;98529.00;1656953;79;21149;-72
2021/05/17 09:28:48;;;;;;;31.45;23.25;;;;;;;26.17;54.70;98522.99;1691906;82;21114;-75
2021/05/17 09:31:21;;;;;;;26.15;20.20;;;;;;;26.18;54.87;98523.82;1706781;82;21594;-77
2021/05/17 09:33:53;;;;;;;22.98;15.30;;;;;;;26.19;55.33;98522.70;1709370;82;21110;-77
2021/05/17 09:36:41;;;;;;;18.82;13.93;;;;;;;26.19;55.41;98522.70;1706459;82;21626;-73
2021/05/17 09:39:13;;;;;;;16.17;12.05;;;;;;;26.20;55.43;98527.84;1710518;82;21231;-75
2021/05/17 09:41:45;;;;;;;17.10;11.22;;;;;;;26.21;55.56;98530.00;1707203;82;21081;-69
2021/05/17 09:44:17;;;;;;;12.17;9.67;;;;;;;26.22;55.69;98531.63;1712013;82;21641;-73
2021/05/17 09:47:23;;;;;;;15.15;9.00;;;;;;;26.22;55.78;98534.36;1710927;82;21779;-77
2021/05/17 09:49:56;;;;;;;12.53;8.15;;;;;;;26.22;55.80;98535.72;1697504;82;21731;-79
2021/05/17 09:52:28;;;;;;;14.85;8.45;;;;;;;26.20;55.91;98542.81;1707970;82;26684;-75
2021/05/17 09:55:11;;;;;;;10.15;8.10;;;;;;;26.20;55.95;98555.63;1708234;82;21108;-73
2021/05/17 09:57:47;;;;;;;11.35;7.80;;;;;;;26.17;56.13;98564.38;1708258;82;21565;-71
2021/05/17 10:00:30;;;;;;;11.28;7.12;;;;;;;26.16;56.37;98568.22;1701071;82;21594;-78
2021/05/17 10:02:55;;;;;;;10.82;7.22;;;;;;;26.15;56.37;98573.40;1703652;82;21138;-78
2021/05/17 10:05:33;;;;;;;8.93;7.45;;;;;;;26.14;56.29;98577.23;1709212;82;21063;-77
2021/05/17 10:08:09;;;;;;;9.98;6.17;;;;;;;26.12;56.24;98581.61;1706013;82;21146;-79
2021/05/17 10:10:36;;;;;;;8.30;6.12;;;;;;;26.11;56.17;98569.66;1709265;81;21215;-76
2021/05/17 10:13:04;;;;;;;9.40;6.37;;;;;;;26.08;56.11;98556.91;1710026;81;21063;-76
2021/05/17 10:15:34;;;;;;;7.95;6.37;;;;;;;26.09;56.04;98533.22;1705214;81;21462;-76
2021/05/17 10:18:00;;;;;;;8.40;6.40;;;;;;;26.07;56.00;98519.11;1708890;82;21102;-76
2021/05/17 10:20:28;;;;;;;7.00;5.22;;;;;;;26.07;55.94;98498.70;1710862;82;22085;-76
2021/05/17 10:22:56;;;;;;;7.08;5.70;;;;;;;26.05;55.84;98460.89;1711855;81;21111;-77
2021/05/17 10:25:26;;;;;;;7.50;5.28;;;;;;;26.04;55.72;98402.16;1711215;82;21058;-73
2021/05/17 10:27:54;;;;;;;6.95;5.42;;;;;;;26.04;55.54;98355.10;1726491;82;21080;-72
2021/05/17 10:30:24;;;;;;;8.20;5.40;;;;;;;26.03;55.39;98335.80;1707314;82;21162;-77
2021/05/17 10:32:57;;;;;;;6.80;4.67;;;;;;;26.02;55.34;98336.88;1711195;82;21088;-79
2021/05/17 10:35:26;;;;;;;;;;;;;;;26.01;55.28;98333.93;1728096;82;21115;-72
2021/05/17 10:38:24;;;;;;;7.03;4.70;;;;;;;26.00;55.22;98329.58;1727376;82;20688;-72
2021/05/17 10:40:57;;;;;;;7.60;4.90;;;;;;;25.92;55.34;98331.66;1721296;82;21100;-75
2021/05/17 10:46:41;;;;;;;9.28;4.92;;;;;;;25.90;55.20;98281.61;1724949;82;22260;-76
2021/05/17 10:49:30;;;;;;;7.55;4.53;;;;;;;25.87;55.22;98320.31;1706510;82;21686;-74
2021/05/17 10:52:13;;;;;;;8.08;4.85;;;;;;;25.86;55.23;98318.69;1711846;82;21738;-76
2021/05/17 10:54:41;;;;;;;7.62;4.87;;;;;;;25.85;55.21;98335.58;1719014;82;21704;-75
2021/05/17 10:57:26;;;;;;;6.80;4.97;;;;;;;25.86;55.19;98354.05;1729961;82;21088;-76
2021/05/17 11:02:42;;;;;;;9.75;5.12;;;;;;;25.89;55.15;98359.70;1727576;82;21040;-72
2021/05/17 11:05:19;;;;;;;5.50;4.70;;;;;;;25.90;55.20;98345.00;1719916;82;21061;-73
2021/05/17 11:07:53;;;;;;;9.38;4.65;;;;;;;25.93;55.13;98338.73;1717627;82;21179;-71
2021/05/17 11:10:33;;;;;;;6.12;4.83;;;;;;;25.97;55.10;98326.13;1718493;82;21143;-72
2021/05/17 11:13:13;;;;;;;8.08;5.30;;;;;;;26.01;54.98;98333.93;1719339;82;21158;-73
2021/05/17 11:15:59;;;;;;;6.37;5.08;;;;;;;26.06;55.00;98339.27;1731033;82;21126;-73
2021/05/17 11:18:39;;;;;;;7.08;4.47;;;;;;;26.11;54.96;98332.91;1719040;82;21079;-75
2021/05/17 11:21:27;;;;;;;5.85;4.33;;;;;;;26.16;55.24;98347.22;1705316;82;21174;-75
2021/05/17 11:23:58;;;;;;;7.12;4.62;;;;;;;26.23;55.14;98350.88;1713738;82;21583;-76
2021/05/17 11:26:25;;;;;;;5.92;4.10;;;;;;;26.28;55.16;98365.17;1704530;82;21600;-75
2021/05/17 11:28:54;;;;;;;6.28;4.15;;;;;;;26.33;55.10;98361.56;1707913;84;21057;-76
2021/05/17 11:31:29;;;;;;;4.95;3.95;;;;;;;26.38;54.95;98370.95;1708010;83;21049;-76
2021/05/17 11:34:10;;;;;;;8.05;4.33;;;;;;;26.41;54.65;98373.08;1707960;84;21134;-75
2021/05/17 11:36:56;;;;;;;5.12;4.20;;;;;;;26.41;54.54;98373.08;1700221;84;21241;-75
2021/05/17 11:39:28;;;;;;;5.75;4.00;;;;;;;26.43;54.52;98380.95;1677344;84;21059;-75
2021/05/17 11:42:03;;;;;;;5.08;4.28;;;;;;;26.41;54.48;98373.08;1663171;84;21089;-75
2021/05/17 11:47:30;;;;;;;5.58;3.90;;;;;;;26.41;54.50;98373.08;1674124;84;21099;-75
2021/05/17 11:49:57;;;;;;;5.90;4.75;;;;;;;26.40;54.28;98382.34;1682942;84;21646;-73
2021/05/17 11:52:32;;;;;;;6.78;4.37;;;;;;;26.38;54.38;98386.49;1692527;84;21101;-80
2021/05/17 11:55:01;;;;;;;6.58;4.30;;;;;;;26.37;54.48;98388.41;1692126;84;21130;-77
2021/05/17 11:57:33;;;;;;;7.37;4.72;;;;;;;26.37;54.80;98374.01;1685377;84;21596;-75
2021/05/17 12:00:13;;;;;;;7.42;5.72;;;;;;;26.36;54.81;98374.54;1655350;85;21098;-76
2021/05/17 12:06:04;;;;;;;9.10;6.50;;;;;;;26.35;54.84;98383.00;1850184;75;22668;-74
2021/05/17 12:08:30;;;;;;;8.88;6.17;;;;;;;26.33;54.76;98395.59;1840716;76;21090;-76
2021/05/17 12:10:57;;;;;;;9.63;6.28;;;;;;;26.35;54.75;98395.26;1839330;76;21057;-77
2021/05/17 12:13:24;;;;;;;11.93;7.28;;;;;;;26.33;54.81;98399.67;1829359;77;21618;-77
2021/05/17 12:15:50;;;;;;;10.15;7.28;;;;;;;26.31;54.88;98405.97;1776609;79;20967;-73